Time;durP1;ratioP1;P1;durP2;ratioP2;P2;SDS_P1;SDS_P2;PMS_P1;PMS_P2;Temp;Humidity;BMP_temperature;BMP_pressure;BME280_temperature;BME280_humidity;BME280_pressure;Samples;Min_cycle;Max_cycle;Signal;HPM_P1;HPM_P2
2023/09/18 00:02:16;;;;;;;6.00;5.10;;;;;;;16.77;95.03;98086.50;107220;1269;22544;-78
2023/09/18 00:04:44;;;;;;;7.50;5.10;;;;;;;16.68;95.21;98087.39;107102;1276;22761;-79
2023/09/18 00:07:12;;;;;;;5.70;5.10;;;;;;;16.73;95.92;98086.13;107169;1263;24383;-79
2023/09/18 00:09:40;;;;;;;5.90;4.80;;;;;;;16.81;95.89;98080.22;107140;1276;24447;-78
2023/09/18 00:12:09;;;;;;;5.90;5.30;;;;;;;16.89;95.92;98075.57;107141;1270;25281;-79
2023/09/18 00:14:37;;;;;;;6.30;5.50;;;;;;;16.91;95.50;98077.34;107190;1276;24437;-79
2023/09/18 00:17:06;;;;;;;6.10;5.20;;;;;;;16.95;95.31;98076.11;107165;1263;24272;-78
2023/09/18 00:19:34;;;;;;;5.80;5.10;;;;;;;17.01;95.44;98074.20;107210;1276;22580;-78
2023/09/18 00:22:02;;;;;;;7.40;5.00;;;;;;;17.09;95.46;98073.08;107214;1253;22633;-78
2023/09/18 00:24:30;;;;;;;5.70;5.10;;;;;;;17.11;95.19;98075.16;107288;1276;24400;-78
2023/09/18 00:26:58;;;;;;;7.80;5.90;;;;;;;17.12;94.90;98073.63;107295;1269;22536;-78
2023/09/18 00:29:26;;;;;;;6.60;6.00;;;;;;;17.05;94.53;98072.30;107149;1266;22537;-78
2023/09/18 00:31:54;;;;;;;6.30;5.70;;;;;;;16.97;94.88;98070.72;107025;1269;241631;-78
2023/09/18 00:34:23;;;;;;;6.40;5.70;;;;;;;16.95;94.62;98072.59;107242;1265;22648;-78
2023/09/18 00:36:51;;;;;;;8.00;5.70;;;;;;;16.87;94.46;98070.07;107192;1262;22541;-78
2023/09/18 00:39:19;;;;;;;6.20;5.30;;;;;;;16.73;94.30;98067.48;107047;1265;22577;-78
2023/09/18 00:41:49;;;;;;;6.90;6.20;;;;;;;16.63;94.75;98069.83;107156;1272;22649;-78
2023/09/18 00:44:17;;;;;;;7.80;5.70;;;;;;;16.59;95.00;98070.85;107222;1254;22531;-78
2023/09/18 00:46:46;;;;;;;8.10;6.70;;;;;;;16.60;95.32;98073.83;107206;1265;23890;-78
2023/09/18 00:49:15;;;;;;;7.30;6.10;;;;;;;16.60;94.94;98072.42;107161;1276;25265;-78
2023/09/18 00:51:44;;;;;;;8.00;5.30;;;;;;;16.61;95.04;98077.81;107158;1264;22627;-78
2023/09/18 00:54:12;;;;;;;9.70;5.40;;;;;;;16.63;94.85;98073.94;107254;1260;25453;-78
2023/09/18 00:56:40;;;;;;;6.70;5.40;;;;;;;16.58;94.96;98068.79;107047;1276;22671;-78
2023/09/18 00:59:10;;;;;;;7.40;5.30;;;;;;;16.46;95.23;98067.41;107277;1272;23136;-78
2023/09/18 01:01:40;;;;;;;6.40;5.70;;;;;;;16.30;95.22;98065.59;107209;1269;22691;-78
2023/09/18 01:04:09;;;;;;;6.50;5.80;;;;;;;16.13;95.24;98061.05;107280;1269;25107;-78
2023/09/18 01:06:37;;;;;;;7.50;6.70;;;;;;;16.00;95.72;98060.96;107190;1276;24394;-78
2023/09/18 01:09:12;;;;;;;6.90;6.10;;;;;;;16.03;95.92;98058.39;107225;1262;22665;-78
2023/09/18 01:12:05;;;;;;;8.20;5.30;;;;;;;16.01;96.10;98059.52;106945;1260;22649;-78
2023/09/18 01:14:50;;;;;;;7.50;6.70;;;;;;;15.85;96.10;98057.98;107007;1276;22694;-79
2023/09/18 01:17:18;;;;;;;6.60;6.00;;;;;;;15.89;96.94;98058.08;107037;1264;22760;-77
2023/09/18 01:19:47;;;;;;;6.90;6.20;;;;;;;15.88;96.29;98059.42;107107;1276;22547;-77
2023/09/18 01:22:17;;;;;;;8.10;6.50;;;;;;;15.81;96.91;98062.25;106855;1263;24355;-77
2023/09/18 01:24:47;;;;;;;9.40;6.50;;;;;;;15.72;97.20;98062.70;106878;1276;22649;-78
2023/09/18 01:27:17;;;;;;;6.70;5.90;;;;;;;15.65;97.15;98064.16;106934;1265;22532;-78
2023/09/18 01:29:49;;;;;;;7.40;6.60;;;;;;;15.68;97.95;98065.86;107215;1269;22530;-77
2023/09/18 01:32:19;;;;;;;7.40;6.40;;;;;;;15.80;97.82;98061.20;107267;1276;22553;-78
2023/09/18 01:34:52;;;;;;;8.10;6.60;;;;;;;15.76;97.34;98059.67;106800;1262;22602;-77
2023/09/18 01:37:23;;;;;;;7.70;6.90;;;;;;;15.67;97.46;98064.35;107019;1276;25297;-77
2023/09/18 01:39:57;;;;;;;8.90;7.40;;;;;;;15.64;97.50;98062.26;107287;1276;22560;-77
2023/09/18 01:42:27;;;;;;;7.70;6.90;;;;;;;15.57;97.30;98061.05;107210;1276;23312;-78
2023/09/18 01:44:55;;;;;;;6.60;5.90;;;;;;;15.54;97.32;98059.52;107293;1276;22526;-78
2023/09/18 01:47:24;;;;;;;6.90;6.10;;;;;;;15.53;97.55;98060.88;107198;1253;22668;-78
2023/09/18 01:49:53;;;;;;;7.00;5.70;;;;;;;15.48;98.07;98059.23;107104;1276;22633;-76
2023/09/18 01:52:21;;;;;;;9.00;6.50;;;;;;;15.45;97.76;98058.58;106891;1276;22535;-78
2023/09/18 01:54:49;;;;;;;8.50;6.80;;;;;;;15.48;98.47;98064.41;107028;1276;22534;-78
2023/09/18 01:57:17;;;;;;;8.70;7.90;;;;;;;15.47;98.59;98062.83;107067;1276;22915;-78
2023/09/18 01:59:45;;;;;;;8.00;6.70;;;;;;;15.46;98.69;98062.56;107193;1276;22693;-78
2023/09/18 02:02:15;;;;;;;8.40;6.60;;;;;;;15.47;99.13;98064.23;107136;1263;22531;-78
2023/09/18 02:05:00;;;;;;;8.20;6.60;;;;;;;15.58;99.82;98067.40;107176;1276;24438;-77
2023/09/18 02:07:37;;;;;;;8.00;6.90;;;;;;;15.67;98.80;98068.61;107152;1265;22632;-77
2023/09/18 02:10:05;;;;;;;8.00;7.20;;;;;;;15.77;99.70;98065.45;107132;1276;22530;-77
2023/09/18 02:12:34;;;;;;;8.20;7.40;;;;;;;15.83;98.79;98063.11;106860;1265;25338;-77
2023/09/18 02:15:06;;;;;;;9.30;7.30;;;;;;;15.82;98.92;98061.67;107216;1276;22909;-79
2023/09/18 02:17:34;;;;;;;9.50;7.30;;;;;;;15.74;99.11;98059.33;107244;1272;22550;-78
2023/09/18 02:20:10;;;;;;;7.90;7.10;;;;;;;15.74;99.61;98059.20;107168;1262;22539;-79
2023/09/18 02:22:39;;;;;;;7.50;6.80;;;;;;;15.82;99.40;98058.73;107207;1262;23959;-78
2023/09/18 02:25:08;;;;;;;8.10;7.30;;;;;;;15.91;99.38;98055.09;107226;1270;24378;-79
2023/09/18 02:27:36;;;;;;;7.80;6.60;;;;;;;15.95;99.28;98053.48;107250;1276;24266;-78
2023/09/18 02:30:04;;;;;;;8.50;7.60;;;;;;;15.98;99.51;98055.85;107016;1260;22600;-78
2023/09/18 02:32:32;;;;;;;9.50;8.60;;;;;;;16.01;99.51;98055.58;106885;1262;25569;-78
2023/09/18 02:35:01;;;;;;;9.30;8.30;;;;;;;16.02;99.78;98059.02;107182;1265;24380;-78
2023/09/18 02:37:30;;;;;;;10.40;8.60;;;;;;;16.04;99.76;98057.16;107283;1273;22633;-77
2023/09/18 02:39:58;;;;;;;8.30;7.50;;;;;;;16.11;99.94;98055.50;107262;1276;22629;-78
2023/09/18 02:42:26;;;;;;;8.00;7.20;;;;;;;16.17;99.85;98049.63;107133;1272;22527;-79
2023/09/18 02:44:54;;;;;;;8.60;7.80;;;;;;;16.23;100.00;98046.91;107101;1276;24366;-78
2023/09/18 02:47:22;;;;;;;9.30;8.00;;;;;;;16.35;100.00;98037.57;107011;1277;24203;-78
2023/09/18 02:49:50;;;;;;;8.20;7.40;;;;;;;16.44;100.00;98041.30;107030;1276;25400;-78
2023/09/18 02:52:18;;;;;;;9.40;8.50;;;;;;;16.44;99.88;98043.73;106891;1263;22899;-78
2023/09/18 02:54:46;;;;;;;10.10;9.10;;;;;;;16.44;100.00;98044.59;106729;1267;23012;-78
2023/09/18 02:57:15;;;;;;;8.40;7.50;;;;;;;16.41;99.97;98045.10;107226;1276;22530;-78
2023/09/18 02:59:43;;;;;;;9.10;8.30;;;;;;;16.43;100.00;98046.09;107249;1272;22636;-78
2023/09/18 03:02:11;;;;;;;9.10;8.30;;;;;;;16.45;99.98;98043.91;107162;1276;22901;-78
2023/09/18 03:04:39;;;;;;;9.60;8.20;;;;;;;16.48;100.00;98034.98;107121;1276;22526;-78
2023/09/18 03:07:07;;;;;;;9.70;8.80;;;;;;;16.52;100.00;98035.46;107111;1277;25297;-78
2023/09/18 03:09:36;;;;;;;10.30;9.30;;;;;;;16.55;99.94;98034.34;106721;1276;22521;-78
2023/09/18 03:12:04;;;;;;;10.30;9.30;;;;;;;16.57;99.99;98034.09;106744;1267;22629;-78
2023/09/18 03:14:32;;;;;;;9.80;8.90;;;;;;;16.54;99.81;98033.59;106811;1266;25310;-78
2023/09/18 03:17:00;;;;;;;8.90;8.10;;;;;;;16.48;99.97;98024.81;107087;1260;25451;-79
2023/09/18 03:19:29;;;;;;;9.20;8.00;;;;;;;16.48;99.91;98028.65;107257;1276;22537;-78
2023/09/18 03:21:57;;;;;;;10.00;8.10;;;;;;;16.46;99.97;98025.06;106673;1260;24216;-78
2023/09/18 03:24:25;;;;;;;9.70;8.80;;;;;;;16.41;100.00;98023.18;106728;1277;24036;-78
2023/09/18 03:26:53;;;;;;;10.50;9.30;;;;;;;16.34;100.00;98023.95;106812;1270;22548;-78
2023/09/18 03:29:22;;;;;;;10.20;9.30;;;;;;;16.29;100.00;98021.48;107155;1276;22644;-78
2023/09/18 03:31:50;;;;;;;10.20;9.20;;;;;;;16.23;99.88;98021.83;107056;1276;22616;-78
2023/09/18 03:34:18;;;;;;;10.20;9.30;;;;;;;16.22;100.00;98022.88;107114;1276;25339;-78
2023/09/18 03:36:46;;;;;;;12.00;10.80;;;;;;;16.25;100.00;98024.38;107272;1276;22683;-78
2023/09/18 03:39:14;;;;;;;8.90;8.20;;;;;;;16.28;100.00;98019.23;106955;1277;22937;-78
2023/09/18 03:41:42;;;;;;;10.00;8.90;;;;;;;16.29;100.00;98015.50;107213;1276;22616;-78
2023/09/18 03:44:11;;;;;;;10.30;9.40;;;;;;;16.26;100.00;98013.84;106976;1275;25480;-78
2023/09/18 03:46:39;;;;;;;11.30;10.20;;;;;;;16.26;100.00;98011.83;107100;1276;23502;-78
2023/09/18 03:49:07;;;;;;;11.40;10.20;;;;;;;16.21;100.00;98009.96;107118;1276;25336;-78
2023/09/18 03:51:37;;;;;;;10.20;9.20;;;;;;;16.23;100.00;98010.51;107271;1260;22643;-78
2023/09/18 03:54:05;;;;;;;10.70;9.10;;;;;;;16.25;100.00;98005.60;106924;1277;22812;-78
2023/09/18 03:56:33;;;;;;;10.30;9.40;;;;;;;16.28;100.00;98008.20;107111;1276;23246;-79
2023/09/18 03:59:01;;;;;;;12.00;10.70;;;;;;;16.27;100.00;98003.50;107229;1276;24374;-79
2023/09/18 04:01:29;;;;;;;11.40;10.30;;;;;;;16.23;100.00;98005.36;107204;1262;24482;-79
2023/09/18 04:03:58;;;;;;;11.30;10.30;;;;;;;16.24;100.00;97999.17;107275;1265;22737;-79
2023/09/18 04:06:36;;;;;;;10.90;9.90;;;;;;;16.22;100.00;97996.08;107240;1257;22620;-77
2023/09/18 04:09:04;;;;;;;12.60;10.40;;;;;;;16.25;100.00;97993.70;106963;1260;23478;-78
2023/09/18 04:11:32;;;;;;;10.90;9.40;;;;;;;16.29;100.00;97988.73;107114;1266;22719;-77
2023/09/18 04:14:03;;;;;;;12.80;10.20;;;;;;;16.31;100.00;97986.08;107268;1276;22643;-77
2023/09/18 04:16:32;;;;;;;10.90;9.80;;;;;;;16.37;100.00;97986.36;106839;1276;22768;-78
2023/09/18 04:19:00;;;;;;;12.10;10.90;;;;;;;16.39;100.00;97981.07;107111;1266;25542;-77
2023/09/18 04:21:29;;;;;;;11.80;10.60;;;;;;;16.38;100.00;97978.63;107201;1262;25252;-77
2023/09/18 04:23:58;;;;;;;10.10;9.20;;;;;;;16.38;100.00;97979.70;107329;1269;24299;-78
2023/09/18 04:26:30;;;;;;;10.10;9.20;;;;;;;16.34;100.00;97978.67;107164;1276;22536;-77
2023/09/18 04:29:00;;;;;;;10.20;9.30;;;;;;;16.36;100.00;97981.12;106847;1276;24344;-78
2023/09/18 04:31:29;;;;;;;11.60;8.70;;;;;;;16.41;100.00;97982.83;106746;1263;22831;-78
2023/09/18 04:33:58;;;;;;;11.10;10.10;;;;;;;16.45;100.00;97983.60;106847;1276;22523;-77
2023/09/18 04:36:26;;;;;;;11.70;10.50;;;;;;;16.48;100.00;97982.23;106694;1276;22618;-77
2023/09/18 04:38:54;;;;;;;11.60;10.60;;;;;;;16.44;99.99;97982.02;106823;1260;22531;-77
2023/09/18 04:41:22;;;;;;;12.90;10.60;;;;;;;16.38;100.00;97983.98;107264;1276;24306;-77
2023/09/18 04:43:51;;;;;;;10.50;9.50;;;;;;;16.30;100.00;97982.61;107267;1276;24391;-78
2023/09/18 04:46:19;;;;;;;10.90;9.50;;;;;;;16.26;100.00;97982.84;107227;1260;23384;-77
2023/09/18 04:48:47;;;;;;;10.50;9.40;;;;;;;16.28;100.00;97983.88;107237;1276;22636;-78
2023/09/18 04:51:15;;;;;;;11.10;9.90;;;;;;;16.35;100.00;97981.03;107204;1260;23834;-78
2023/09/18 04:53:43;;;;;;;10.20;9.10;;;;;;;16.41;100.00;97975.06;107265;1272;23430;-77
2023/09/18 04:56:12;;;;;;;11.50;10.50;;;;;;;16.44;100.00;97973.72;106757;1269;25415;-77
2023/09/18 04:58:40;;;;;;;10.70;9.70;;;;;;;16.48;100.00;97974.64;107187;1276;22619;-79
2023/09/18 05:01:10;;;;;;;11.10;9.60;;;;;;;16.52;100.00;97973.77;106929;1276;22540;-77
2023/09/18 05:03:40;;;;;;;10.50;9.40;;;;;;;16.60;100.00;97971.64;107120;1272;24336;-78
2023/09/18 05:06:11;;;;;;;10.60;8.90;;;;;;;16.67;100.00;97973.95;107008;1273;22531;-77
2023/09/18 05:08:39;;;;;;;11.60;9.40;;;;;;;16.72;99.98;97971.34;106565;1266;22523;-77
2023/09/18 05:11:07;;;;;;;11.50;10.50;;;;;;;16.76;99.98;97969.63;107264;1266;24205;-78
2023/09/18 05:13:36;;;;;;;10.90;10.00;;;;;;;16.84;100.00;97965.90;107237;1269;22581;-77
2023/09/18 05:16:04;;;;;;;11.50;9.80;;;;;;;16.91;100.00;97962.17;107217;1266;22639;-77
2023/09/18 05:18:32;;;;;;;10.80;9.50;;;;;;;16.96;99.90;97957.52;106911;1276;22930;-78
2023/09/18 05:21:01;;;;;;;10.90;9.00;;;;;;;17.02;99.82;97957.10;106835;1266;22546;-77
2023/09/18 05:23:29;;;;;;;11.20;9.80;;;;;;;17.07;99.84;97960.46;106730;1270;22519;-77
2023/09/18 05:25:57;;;;;;;10.40;9.50;;;;;;;17.14;99.83;97963.01;107001;1277;22657;-78
2023/09/18 05:29:10;;;;;;;11.10;10.10;;;;;;;17.20;99.68;97961.35;106901;1269;22540;-77
2023/09/18 05:33:07;;;;;;;10.70;9.10;;;;;;;17.26;99.39;97957.08;106494;1281;25348;-77
2023/09/18 05:35:55;;;;;;;12.40;9.70;;;;;;;17.36;99.24;97953.42;107030;1275;25273;-79
2023/09/18 05:38:23;;;;;;;10.00;9.00;;;;;;;17.45;99.36;97954.09;106953;1277;22632;-77
2023/09/18 05:40:51;;;;;;;10.50;9.50;;;;;;;17.54;99.24;97948.69;106770;1279;22538;-77
2023/09/18 05:43:19;;;;;;;13.20;12.00;;;;;;;17.60;99.03;97952.23;106611;1271;22662;-75
2023/09/18 05:45:49;;;;;;;11.10;10.00;;;;;;;17.66;99.24;97953.65;106577;1281;22539;-81
2023/09/18 05:48:17;;;;;;;8.00;5.70;;;;;;;17.82;99.66;97946.37;106781;1268;22592;-81
2023/09/18 05:50:45;;;;;;;9.40;6.90;;;;;;;18.12;99.86;97947.21;106818;1268;25519;-78
2023/09/18 05:53:13;;;;;;;10.30;9.30;;;;;;;18.36;99.49;97940.55;106484;1273;22778;-80
2023/09/18 05:55:41;;;;;;;8.10;7.30;;;;;;;18.58;98.97;97938.87;106767;1281;22542;-80
2023/09/18 05:58:09;;;;;;;9.70;8.70;;;;;;;18.78;98.64;97935.88;106808;1277;22749;-79
2023/09/18 06:00:37;;;;;;;9.60;8.60;;;;;;;18.86;98.04;97933.13;106918;1280;22621;-80
2023/09/18 06:03:12;;;;;;;10.60;9.20;;;;;;;18.98;98.00;97935.61;106755;1265;22540;-78
2023/09/18 06:05:40;;;;;;;9.80;8.50;;;;;;;19.09;97.33;97933.75;106478;1265;25379;-82
2023/09/18 06:08:09;;;;;;;8.60;7.80;;;;;;;19.20;97.38;97933.02;106831;1265;24378;-82
2023/09/18 06:10:37;;;;;;;11.70;9.20;;;;;;;19.37;96.81;97926.13;106814;1273;24084;-79
2023/09/18 06:13:05;;;;;;;12.10;9.00;;;;;;;19.39;95.93;97931.41;106748;1271;23972;-80
2023/09/18 06:15:34;;;;;;;8.50;7.70;;;;;;;19.36;95.77;97935.25;107487;1265;22650;-78
2023/09/18 06:18:03;;;;;;;9.90;8.90;;;;;;;19.36;95.89;97938.38;106982;1270;24689;-78
2023/09/18 06:20:31;;;;;;;10.30;9.30;;;;;;;19.40;95.93;97932.15;106919;1277;22552;-80
2023/09/18 06:22:59;;;;;;;10.40;9.30;;;;;;;19.49;95.57;97927.42;106966;1274;25299;-78
2023/09/18 06:25:27;;;;;;;10.00;9.00;;;;;;;19.60;95.67;97925.86;106836;1268;22741;-77
2023/09/18 06:27:56;;;;;;;9.80;8.40;;;;;;;19.73;95.06;97925.24;106901;1281;22529;-78
2023/09/18 06:30:24;;;;;;;11.40;8.90;;;;;;;19.84;94.46;97926.23;106805;1277;24414;-79
2023/09/18 06:32:52;;;;;;;9.60;8.70;;;;;;;19.87;93.73;97925.22;106811;1281;22791;-80
2023/09/18 06:35:21;;;;;;;10.50;9.50;;;;;;;19.89;93.01;97928.55;106943;1280;22678;-80
2023/09/18 06:37:49;;;;;;;12.60;9.40;;;;;;;19.91;92.78;97925.23;106864;1275;25298;-79
2023/09/18 06:40:17;;;;;;;10.60;9.40;;;;;;;19.95;92.57;97922.64;106861;1270;25295;-79
2023/09/18 06:42:45;;;;;;;11.30;10.10;;;;;;;19.95;92.28;97923.67;106842;1272;24268;-80
2023/09/18 06:45:13;;;;;;;11.20;10.10;;;;;;;19.97;91.73;97920.50;106870;1277;22699;-80
2023/09/18 06:47:41;;;;;;;10.40;9.00;;;;;;;20.02;91.02;97917.55;106935;1270;22540;-80
2023/09/18 06:50:11;;;;;;;9.80;8.80;;;;;;;20.10;91.34;97910.52;107014;1275;22661;-78
2023/09/18 06:52:40;;;;;;;10.30;9.20;;;;;;;20.21;90.79;97910.89;106997;1277;25233;-80
2023/09/18 06:55:09;;;;;;;13.50;9.10;;;;;;;20.31;90.38;97917.87;106845;1275;24628;-79
2023/09/18 06:57:37;;;;;;;12.30;8.60;;;;;;;20.40;90.06;97918.44;107019;1280;23965;-79
2023/09/18 07:00:05;;;;;;;10.30;9.20;;;;;;;20.51;90.16;97916.92;107170;1273;22537;-79
2023/09/18 07:02:33;;;;;;;9.60;8.10;;;;;;;20.60;89.68;97919.21;106921;1277;22550;-77
2023/09/18 07:05:02;;;;;;;11.80;10.70;;;;;;;20.64;89.07;97916.38;107216;1265;22484;-76
2023/09/18 07:07:32;;;;;;;11.00;10.00;;;;;;;20.63;88.92;97913.94;106613;1266;22799;-77
2023/09/18 07:10:00;;;;;;;10.30;9.30;;;;;;;20.65;88.22;97912.98;106593;1280;24238;-77
2023/09/18 07:12:32;;;;;;;11.60;9.40;;;;;;;20.67;88.06;97912.92;106907;1274;24388;-77
2023/09/18 07:15:03;;;;;;;11.00;9.00;;;;;;;20.71;87.92;97912.98;106952;1271;24592;-77
2023/09/18 07:17:35;;;;;;;14.30;9.40;;;;;;;20.74;87.69;97915.78;106937;1280;22562;-78
2023/09/18 07:20:25;;;;;;;10.90;9.10;;;;;;;20.78;87.63;97912.70;107014;1280;22574;-77
2023/09/18 07:22:52;;;;;;;14.50;10.10;;;;;;;20.85;87.57;97917.77;107014;1280;22547;-76
2023/09/18 07:25:20;;;;;;;10.30;9.30;;;;;;;20.91;87.61;97919.10;107003;1280;22545;-76
2023/09/18 07:27:48;;;;;;;9.80;8.80;;;;;;;20.99;86.91;97916.73;106547;1280;22686;-76
2023/09/18 07:30:16;;;;;;;10.60;8.30;;;;;;;21.02;86.42;97915.99;107103;1278;22535;-78
2023/09/18 07:32:45;;;;;;;10.70;9.10;;;;;;;21.07;86.66;97918.42;107197;1274;22529;-76
2023/09/18 07:35:14;;;;;;;10.10;9.10;;;;;;;21.13;86.56;97916.73;106639;1280;22529;-76
2023/09/18 07:37:45;;;;;;;10.50;9.20;;;;;;;21.20;86.33;97912.52;106562;1277;22641;-79
2023/09/18 07:40:13;;;;;;;9.50;8.60;;;;;;;21.29;86.13;97915.71;107040;1277;23377;-79
2023/09/18 07:42:43;;;;;;;10.60;8.90;;;;;;;21.39;85.90;97916.80;106952;1269;22651;-78
2023/09/18 07:45:12;;;;;;;10.70;8.60;;;;;;;21.52;85.62;97916.69;107057;1263;24186;-79
2023/09/18 07:47:40;;;;;;;15.30;9.40;;;;;;;21.61;85.25;97913.91;107043;1267;23392;-78
2023/09/18 07:50:09;;;;;;;14.80;8.30;;;;;;;21.69;84.76;97911.99;106558;1271;22537;-78
2023/09/18 07:52:37;;;;;;;15.60;8.50;;;;;;;21.78;85.00;97910.38;106953;1268;22642;-77
2023/09/18 07:55:05;;;;;;;8.60;7.70;;;;;;;21.89;84.51;97906.98;106775;1277;23233;-78
2023/09/18 07:57:34;;;;;;;11.50;8.60;;;;;;;21.97;84.20;97908.24;106483;1269;22550;-78
2023/09/18 08:00:07;;;;;;;9.50;8.50;;;;;;;22.08;84.43;97903.45;106493;1278;24247;-76
2023/09/18 08:02:41;;;;;;;10.00;8.50;;;;;;;22.19;84.30;97898.42;106851;1281;22645;-77
2023/09/18 08:05:11;;;;;;;12.00;8.80;;;;;;;22.33;84.32;97895.35;106594;1268;22527;-76
2023/09/18 08:07:40;;;;;;;9.40;8.50;;;;;;;22.46;83.69;97892.05;106450;1268;22617;-76
2023/09/18 08:10:08;;;;;;;9.20;7.90;;;;;;;22.58;82.78;97886.34;106518;1265;24358;-76
2023/09/18 08:12:36;;;;;;;14.40;8.90;;;;;;;22.67;82.47;97883.67;106469;1277;22652;-76
2023/09/18 08:15:06;;;;;;;9.50;8.60;;;;;;;22.76;81.88;97890.04;106434;1265;22527;-77
2023/09/18 08:17:34;;;;;;;10.30;7.40;;;;;;;22.82;81.11;97892.36;106404;1273;25243;-77
2023/09/18 08:20:11;;;;;;;10.50;8.20;;;;;;;22.93;81.36;97895.35;106960;1271;25367;-79
2023/09/18 08:22:40;;;;;;;10.40;8.60;;;;;;;23.06;81.35;97895.73;106728;1274;22533;-81
2023/09/18 08:25:13;;;;;;;8.80;7.90;;;;;;;23.17;80.69;97891.00;106839;1270;22549;-81
2023/09/18 08:27:43;;;;;;;11.20;8.40;;;;;;;23.27;80.66;97892.02;106913;1281;22563;-81
2023/09/18 08:30:14;;;;;;;10.40;8.60;;;;;;;23.37;80.51;97890.19;106927;1281;25523;-81
2023/09/18 08:32:42;;;;;;;10.00;8.30;;;;;;;23.48;80.33;97889.23;106934;1277;22638;-80
2023/09/18 08:35:11;;;;;;;9.90;8.60;;;;;;;23.59;79.62;97885.91;106984;1275;22531;-80
2023/09/18 08:37:43;;;;;;;14.70;9.20;;;;;;;23.69;78.85;97885.52;107108;1270;22553;-81
2023/09/18 08:40:13;;;;;;;10.60;8.70;;;;;;;23.75;78.45;97878.88;107021;1280;22686;-79
2023/09/18 08:42:47;;;;;;;9.70;8.00;;;;;;;23.81;78.66;97872.99;106993;1280;23403;-78
2023/09/18 08:45:35;;;;;;;9.10;8.20;;;;;;;23.88;77.90;97875.85;107080;1280;22836;-76
2023/09/18 08:48:04;;;;;;;9.70;8.70;;;;;;;23.98;78.34;97874.86;106620;1275;22670;-76
2023/09/18 08:50:34;;;;;;;11.60;8.70;;;;;;;24.10;78.16;97870.96;107079;1275;22546;-77
2023/09/18 08:53:03;;;;;;;13.70;8.90;;;;;;;24.18;76.79;97870.44;106681;1273;22766;-76
2023/09/18 08:55:35;;;;;;;12.70;9.00;;;;;;;24.24;75.55;97864.55;106537;1278;22646;-76
2023/09/18 08:58:04;;;;;;;12.20;9.00;;;;;;;24.30;75.96;97861.65;106601;1278;23326;-76
2023/09/18 09:00:32;;;;;;;10.90;8.80;;;;;;;24.41;75.18;97857.84;107150;1274;25487;-77
2023/09/18 09:03:00;;;;;;;17.70;8.70;;;;;;;24.52;74.69;97857.61;107030;1257;24366;-78
2023/09/18 09:05:28;;;;;;;10.80;8.50;;;;;;;24.61;74.88;97858.09;107166;1266;23305;-77
2023/09/18 09:07:57;;;;;;;11.00;8.30;;;;;;;24.68;74.73;97854.41;107048;1275;22639;-77
2023/09/18 09:10:25;;;;;;;10.30;8.70;;;;;;;24.76;74.48;97852.29;106980;1266;22686;-77
2023/09/18 09:12:55;;;;;;;10.00;8.40;;;;;;;24.86;74.79;97843.21;107050;1274;23501;-78
2023/09/18 09:15:28;;;;;;;9.40;8.00;;;;;;;24.99;73.87;97845.48;107190;1277;25284;-76
2023/09/18 09:18:07;;;;;;;9.70;8.50;;;;;;;25.09;73.49;97843.35;106738;1278;22517;-77
2023/09/18 09:20:36;;;;;;;9.70;8.50;;;;;;;25.15;72.71;97838.64;106650;1280;25509;-75
2023/09/18 09:23:06;;;;;;;11.90;9.40;;;;;;;25.18;71.99;97832.58;106585;1275;22937;-75
2023/09/18 09:25:36;;;;;;;11.40;8.60;;;;;;;25.26;71.29;97833.19;107235;1269;24392;-78
2023/09/18 09:28:06;;;;;;;12.20;8.90;;;;;;;25.35;69.29;97841.13;107073;1280;23521;-78
2023/09/18 09:30:38;;;;;;;10.10;9.20;;;;;;;25.39;68.42;97840.00;107086;1278;22496;-77
2023/09/18 09:33:07;;;;;;;11.50;8.50;;;;;;;25.41;68.81;97837.39;106990;1268;22527;-79
2023/09/18 09:35:37;;;;;;;9.60;8.30;;;;;;;25.54;67.56;97835.30;106962;1277;24215;-80
2023/09/18 09:38:15;;;;;;;9.80;8.60;;;;;;;25.62;66.52;97833.70;106599;1272;25332;-79
2023/09/18 09:40:45;;;;;;;10.10;9.00;;;;;;;25.68;65.39;97832.26;106958;1276;22539;-78
2023/09/18 09:43:14;;;;;;;10.30;9.30;;;;;;;25.68;65.02;97828.79;106622;1278;22560;-79
2023/09/18 09:45:46;;;;;;;9.40;8.30;;;;;;;25.74;65.18;97829.70;106765;1280;24047;-79
2023/09/18 09:48:14;;;;;;;11.10;9.20;;;;;;;25.82;64.84;97825.19;106602;1280;22645;-78
2023/09/18 09:50:48;;;;;;;10.10;9.20;;;;;;;25.91;64.48;97823.66;106567;1273;23885;-79
2023/09/18 09:53:18;;;;;;;11.00;8.90;;;;;;;25.99;63.57;97817.23;106606;1275;22543;-78
2023/09/18 09:55:54;;;;;;;10.70;9.70;;;;;;;26.04;62.91;97816.40;106987;1280;22803;-80
2023/09/18 09:58:32;;;;;;;9.70;8.70;;;;;;;26.01;62.22;97815.71;106486;1280;25361;-79
2023/09/18 10:01:10;;;;;;;10.60;9.40;;;;;;;26.06;63.25;97810.00;107001;1280;26971;-80
2023/09/18 10:03:42;;;;;;;9.40;8.50;;;;;;;26.15;63.79;97807.65;107014;1278;22594;-80
2023/09/18 10:06:14;;;;;;;12.40;11.20;;;;;;;26.25;63.37;97803.41;106983;1280;22558;-80
2023/09/18 10:08:42;;;;;;;11.30;9.10;;;;;;;26.34;62.99;97796.95;106995;1278;23911;-79
2023/09/18 10:11:16;;;;;;;9.50;8.40;;;;;;;26.41;62.54;97798.55;106527;1269;22768;-79
2023/09/18 10:13:53;;;;;;;10.10;9.10;;;;;;;26.47;62.02;97797.02;106605;1265;22540;-81
2023/09/18 10:16:25;;;;;;;9.20;8.10;;;;;;;26.53;61.23;97799.13;106911;1280;24187;-78
2023/09/18 10:19:11;;;;;;;8.80;7.90;;;;;;;26.60;61.66;97798.83;106989;1280;24357;-78
2023/09/18 10:22:13;;;;;;;9.00;8.10;;;;;;;26.74;60.93;97796.33;106561;1269;22590;-79
2023/09/18 10:24:46;;;;;;;9.40;8.40;;;;;;;26.86;60.27;97798.45;106909;1268;22654;-80
2023/09/18 10:27:15;;;;;;;;;;;;;;;26.91;60.38;97791.35;107003;1267;22639;-82
2023/09/18 10:29:48;;;;;;;9.00;8.10;;;;;;;27.00;59.88;97790.08;106948;1273;22656;-79
2023/09/18 10:32:18;;;;;;;;;;;;;;;27.00;59.30;97788.66;107063;1270;24336;-79
2023/09/18 10:34:48;;;;;;;8.80;8.00;;;;;;;26.96;59.02;97784.59;106589;1274;22539;-80
2023/09/18 10:37:17;;;;;;;8.90;8.00;;;;;;;26.93;58.99;97784.70;107035;1272;23944;-79
2023/09/18 10:39:48;;;;;;;9.30;8.10;;;;;;;26.99;58.72;97781.01;107012;1270;24357;-80
2023/09/18 10:42:18;;;;;;;8.70;7.80;;;;;;;27.10;58.47;97780.26;106557;1271;22664;-79
2023/09/18 10:44:47;;;;;;;12.40;8.20;;;;;;;27.17;57.83;97774.77;106558;1280;25315;-79
2023/09/18 10:47:16;;;;;;;8.70;7.80;;;;;;;27.34;58.49;97771.09;106570;1271;23474;-80
2023/09/18 10:49:44;;;;;;;9.40;7.60;;;;;;;27.53;58.48;97769.83;106545;1278;22568;-80
2023/09/18 10:52:13;;;;;;;8.40;7.50;;;;;;;27.65;57.20;97770.22;106947;1280;24388;-79
2023/09/18 10:54:42;;;;;;;8.00;7.20;;;;;;;27.68;56.80;97769.71;106865;1280;26063;-80
2023/09/18 10:57:10;;;;;;;8.60;7.80;;;;;;;27.79;57.81;97767.62;106953;1280;25058;-80
2023/09/18 10:59:45;;;;;;;8.70;7.80;;;;;;;27.93;56.35;97762.91;106943;1269;22649;-80
2023/09/18 11:02:16;;;;;;;8.50;7.60;;;;;;;28.06;56.24;97768.96;106995;1278;25351;-78
2023/09/18 11:04:44;;;;;;;8.60;7.60;;;;;;;28.17;55.84;97766.91;107067;1275;23955;-80
2023/09/18 11:07:23;;;;;;;8.80;7.70;;;;;;;28.32;56.38;97763.11;107063;1271;25426;-81
2023/09/18 11:09:51;;;;;;;9.10;7.60;;;;;;;28.52;55.24;97762.16;107011;1278;22533;-79
2023/09/18 11:12:44;;;;;;;8.00;7.00;;;;;;;28.59;54.94;97758.02;107058;1272;24333;-79
2023/09/18 11:15:34;;;;;;;8.10;7.30;;;;;;;28.66;54.58;97761.30;107036;1278;25543;-78
2023/09/18 11:18:03;;;;;;;9.30;7.20;;;;;;;28.65;53.60;97751.27;106516;1271;25018;-79
2023/09/18 11:20:38;;;;;;;9.60;6.80;;;;;;;28.66;53.47;97751.95;106917;1278;22584;-79
2023/09/18 11:23:17;;;;;;;8.20;7.40;;;;;;;28.73;53.05;97748.20;106582;1278;22536;-79
2023/09/18 11:25:47;;;;;;;8.70;7.20;;;;;;;28.85;53.85;97742.81;106921;1280;22703;-78
2023/09/18 11:28:23;;;;;;;9.00;6.80;;;;;;;29.03;53.10;97743.59;106841;1277;22952;-79
2023/09/18 11:31:00;;;;;;;8.30;6.40;;;;;;;29.13;50.46;97736.52;106962;1280;22658;-82
2023/09/18 11:33:36;;;;;;;8.90;6.10;;;;;;;29.14;50.37;97732.94;107035;1277;22541;-82
2023/09/18 11:36:32;;;;;;;8.10;6.50;;;;;;;29.09;50.31;97734.15;107032;1273;22550;-82